Tiempo atmosférico en la estación meteorológica de Roquetas de Mar, Almería (7 m.)



Fecha
DESCASC
Temp. máxima en grados centígrados (hora)
DESCASC
Temp. mínima en grados centígrados (hora)
DESCASC
Temp. media en grados centígrados
DESCASC
Racha de viento máxima en m/sg (hora)
DESCASC
Velocidad máxima media en intervalos de 10 minutos(hora)
DESCASC
Precipitaciones diarias en mm
DESCASC
Precipitaciones de 00:00 a 06:00 en mm
DESCASC
Precipitaciones de 06:00 a 12:00 en mm
DESCASC
Precipitaciones de 12:00 a 18:00 en mm
DESCASC
Precipitaciones de 18:00 a 24:00 en mm
DESCASC
18-08-2019 29 (16:40) 19.7 (07:20) 24.4 9.17 (18:30) 5.56 (08:50) 0 0 0 0 0
17-08-2019 28.7 (16:30) 21.4 (08:00) 25.1 5.28 (12:20) 3.33 (12:10) 0 0 0 0 0
16-08-2019 29.8 (10:50) 19.6 (07:50) 24.7 7.22 (14:30) 4.17 (13:10) 0 0 0 0 0
15-08-2019 29.1 (15:40) 20.3 (00:00) 24.7 6.67 (14:10) 4.17 (14:20) 0 0 0 0 0
14-08-2019 28.4 (15:50) 22 (00:00) 25.2 7.78 (11:00) 4.44 (11:00) 0 0 0 0 0
13-08-2019 29.3 (12:20) 23.1 (00:00) 26.2 11.67 (15:50) 7.78 (15:30) 0 0 0 0 0
12-08-2019 28.7 (18:20) 18.1 (00:00) 23.4 5.83 (23:00) 3.33 (13:30) 0 0 0 0 0
11-08-2019 26.6 (15:40) 21.1 (00:00) 23.9 10.83 (16:40) 7.78 (16:40) 0 0 0 0 0
10-08-2019 32 (17:00) 21 (00:00) 26.5 10.83 (15:40) 6.94 (15:40) 0 0 0 0 0
09-08-2019 29.6 (18:10) 20.9 (00:00) 25.3 12.5 (17:50) 8.06 (17:50) 0 0 0 0 0
08-08-2019 28.2 (13:40) 19.7 (00:00) 24 5.56 (14:50) 3.61 (14:50) 0 0 0 0 0
07-08-2019 28.2 (15:20) 22.7 (00:00) 25.5 10.83 (12:50) 6.94 (12:50) 0 0 0 0 0
06-08-2019 28.5 (16:00) 21.8 (00:00) 25.1 8.33 (19:10) 6.39 (23:00) 0 0 0 0 0
05-08-2019 30.4 (15:30) 22.2 (00:00) 26.3 8.33 (18:10) 3.89 (15:20) 0 0 0 0 0
04-08-2019 28.1 (15:10) 23.3 (00:00) 25.7 8.61 (17:20) 4.44 (20:10) 0 0 0 0 0
03-08-2019 28.8 (17:30) 20.8 (00:00) 24.8 6.67 (21:30) 4.17 (18:00) 0 0 0 0 0
02-08-2019 28.3 (18:20) 21.8 (00:00) 25 6.39 (18:40) 4.72 (18:50) 0 0 0 0 0
01-08-2019 29.2 (13:50) 21.4 (00:00) 25.3 13.89 (10:40) 8.89 (10:40) 0 0 0 0 0
31-07-2019 31.1 (12:10) 22.6 (00:00) 26.9 19.72 (13:00) 11.94 (13:00) 0 0 0 0 0
30-07-2019 27.9 (15:50) 19.3 (00:00) 23.6 9.72 (22:00) 6.39 (22:00) 0 0 0 0 0
29-07-2019 25.3 (16:00) 18.1 (00:00) 21.7 8.33 (19:20) 4.17 (14:50) 0 0 0 0 0
28-07-2019 27 (18:40) 18.3 (00:00) 22.6 10.28 (15:50) 7.22 (17:00) 0 0 0 0 0
27-07-2019 26.1 (16:40) 21.6 (00:00) 23.9 18.33 (17:30) 12.22 (19:30) 0 0 0 0 0
26-07-2019 27.3 (17:20) 22.8 (00:00) 25 18.61 (21:00) 12.78 (21:10) 0 0 0 0 0
25-07-2019 29.4 (16:10) 22.5 (00:00) 25.9 8.06 (20:00) 5 (04:50) 0 0 0 0 0
24-07-2019 29.1 (14:00) 21.5 (00:00) 25.3 8.61 (06:50) 5.28 (06:50) 0 0 0 0 0
23-07-2019 30.3 (14:40) 22.5 (00:00) 26.4 10.56 (05:30) 6.67 (05:30) 0 0 0 0 0
22-07-2019 28.9 (19:40) 22.6 (00:00) 25.8 16.39 (16:30) 10 (16:40) 0 0 0 0 0
21-07-2019 30.2 (16:30) 21.6 (00:00) 25.9 10.28 (23:30) 6.11 (23:40) 0 0 0 0 0

Gráficas

Temp. máximas Temp. mínimas Temp. medias Precipitaciones Rachas de viento máximas Velocidades máximas media en intervalos de 10 minutos

Datos horarios

Fecha y hora oficial Temperatura (ºC) Velocidad del viento (km/h) Dirección del viento Racha (km/h) Dirección de racha Precipitación (mm) Presión (hPa) Tendencia (hPa) Humedad (%)
2019-08-19 23:00:00 23.9 8 Sudeste 13 Este 0 1013.3 1.8 82
2019-08-19 22:00:00 24.9 7 Sudoeste 10 Sudoeste 0 1012.2 0.4 79
2019-08-19 21:00:00 26.5 3 Oeste 15 Sudoeste 0 1011.5 -0.4 73
2019-08-19 20:00:00 27.6 10 Oeste 20 Oeste 0 1011.5 -0.7 64
2019-08-19 19:00:00 27.8 12 Sudoeste 23 Sudoeste 0 1011.8 -0.9 66
2019-08-19 18:00:00 28.2 13 Oeste 23 Oeste 0 1011.9 -1.1 67
2019-08-19 17:00:00 28.3 12 Oeste 29 Sudoeste 0 1012.2 -1 66
2019-08-19 16:00:00 27.4 18 Sudoeste 28 Sudoeste 0 1012.7 -0.8 71
2019-08-19 15:00:00 27.1 14 Sudoeste 21 Sudoeste 0 1013 -0.4 73
2019-08-19 14:00:00 26.6 12 Sudoeste 18 Sudoeste 0 1013.2 0.1 75
2019-08-19 13:00:00 26.4 11 Sudoeste 18 Oeste 0 1013.5 0.9 74
2019-08-19 12:00:00 26.2 10 Sudoeste 19 Sudoeste 0 1013.4 1.1 75
2019-08-19 11:00:00 25.7 12 Sudoeste 17 Sudoeste 0 1013.1 1.2 77
2019-08-19 10:00:00 24.1 3 Oeste 7 Sudoeste 0 1012.6 0.9 88
2019-08-19 09:00:00 22.3 3 Norte 9 Norte 0 1012.3 0.8 90
2019-08-19 08:00:00 19.9 5 Norte 7 Norte 0 1011.9 0 89
2019-08-19 07:00:00 20.4 5 Norte 8 Norte 0 1011.7 -0.2 88
2019-08-19 06:00:00 20.8 6 Norte 10 Nordeste 0 1011.5 -0.9 87
2019-08-19 05:00:00 21 7 Nordeste 9 Nordeste 0 1011.9 -0.8 86
2019-08-19 04:00:00 21.9 3 Este 7 Noroeste 0 1011.9 -0.7 84
2019-08-19 03:00:00 22.5 6 Noroeste 14 Oeste 0 1012.4 -0.3 81
2019-08-19 02:00:00 23.8 8 Oeste 15 Sudoeste 0 1012.7 0.8 80
2019-08-19 01:00:00 24.2 7 Sudoeste 13 Sudoeste 0 1012.6 1.6 81
2019-08-19 00:00:00 24.2 5 Oeste 17 Sudoeste 0 1012.7 1.9 78
2019-08-18 23:00:00 25.1 12 Sudoeste 20 Sudoeste 0 1011.9 1.1 77
2019-08-18 22:00:00 25.3 9 Oeste 22 Oeste 0 1011 -0.3 71
2019-08-18 21:00:00 25.7 15 Oeste 28 Oeste 0 1010.8 -0.8 65
2019-08-18 20:00:00 26.3 16 Oeste 33 Oeste 0 1010.8 -1.2 70
2019-08-18 19:00:00 26.8 18 Oeste 33 Oeste 0 1011.3 -1.2 70
2019-08-18 18:00:00 28.1 16 Oeste 31 Sudoeste 0 1011.6 -1.3 64
2019-08-18 17:00:00 28.7 15 Oeste 30 Sudoeste 0 1012 -1.4 60
2019-08-18 16:00:00 28.1 17 Oeste 32 Oeste 0 1012.5 -1.4 65
2019-08-18 15:00:00 28.5 14 Oeste 27 Oeste 0 1012.9 -0.8 64
2019-08-18 14:00:00 27.6 14 Oeste 28 Oeste 0 1013.4 0.2 70
2019-08-18 13:00:00 26.4 15 Oeste 30 Oeste 0 1013.9 1.2 71
2019-08-18 12:00:00 25.9 15 Oeste 30 Oeste 0 1013.7 1.4 75
2019-08-18 11:00:00 25.9 12 Oeste 23 Oeste 0 1013.2 2 76
2019-08-18 10:00:00 25.7 10 Oeste 24 Sudoeste 0 1012.7 2 81
2019-08-18 09:00:00 24.1 15 Sudoeste 27 Sudoeste 0 1012.3 1.4 88
2019-08-18 08:00:00 20.7 4 Noroeste 8 Sudoeste 0 1011.2 -0.1 90
2019-08-18 07:00:00 20.1 5 Norte 8 Noroeste 0 1010.7 -1.3 89
2019-08-18 06:00:00 20.8 6 Norte 9 Norte 0 1010.9 -1.7 89
2019-08-18 05:00:00 20.9 5 Norte 8 Norte 0 1011.3 -1.8 87
2019-08-18 04:00:00 21.6 5 Norte 11 Noroeste 0 1012 -1.4 87
2019-08-18 03:00:00 22.3 11 Noroeste 12 Noroeste 0 1012.6 -0.8 87
2019-08-18 02:00:00 23.2 8 Noroeste 11 Norte 0 1013.1 0.3 87
2019-08-18 01:00:00 24 8 Noroeste 12 Norte 0 1013.4 1.3 86
2019-08-18 00:00:00 24.7 7 Oeste 14 Oeste 0 1013.4 1.7 84
2019-08-17 23:00:00 25.2 8 Oeste 12 Oeste 0 1012.8 0.8 81
2019-08-17 22:00:00 26 8 Oeste 15 Sudoeste 0 1012.1 -0.6 79
2019-08-17 21:00:00 26.8 6 Sudoeste 11 Sudoeste 0 1011.7 -1.6 76
2019-08-17 20:00:00 27.6 5 Sudoeste 14 Sur 0 1012 -1.5 76
2019-08-17 19:00:00 27.9 6 Sur 16 Sur 0 1012.7 -1.5 73
2019-08-17 18:00:00 28.1 9 Sur 17 Sudeste 0 1013.3 -1.7 72
2019-08-17 17:00:00 28.4 10 Sudeste 18 Sudeste 0 1013.5 -1.9 71
2019-08-17 16:00:00 28.2 9 Sur 18 Sudeste 0 1014.2 -1.3 70
2019-08-17 15:00:00 28.2 9 Sudeste 17 Sudeste 0 1015 -0.7 70
2019-08-17 14:00:00 27.6 9 Sur 17 Sur 0 1015.4 -0.4 70
2019-08-17 13:00:00 27.4 10 Sudeste 19 Sudeste 0 1015.5 -0.3 72
2019-08-17 12:00:00 27.7 10 Sudeste 17 Sudeste 0 1015.7 0.4 71
2019-08-17 11:00:00 25.9 7 Sudoeste 15 Sudoeste 0 1015.8 0.9 81
2019-08-17 10:00:00 24.6 5 Oeste 10 Noroeste 0 1015.8 1.2 89
2019-08-17 09:00:00 23.3 3 Noroeste 6 Norte 0 1015.3 0.5 90
2019-08-17 08:00:00 21.4 4 Norte 8 Noroeste 0 1014.9 -0.3 90
2019-08-17 07:00:00 22.1 6 Noroeste 11 Noroeste 0 1014.6 -0.7 89
2019-08-17 06:00:00 22.3 9 Noroeste 12 Noroeste 0 1014.8 -1.2 89
2019-08-17 05:00:00 22.7 8 Noroeste 11 Norte 0 1015.2 -1.3 88
2019-08-17 04:00:00 23.1 8 Noroeste 10 Noroeste 0 1015.3 -1.2 86
2019-08-17 03:00:00 23.4 7 Noroeste 10 Oeste 0 1016 -0.3 85
2019-08-17 02:00:00 24.5 7 Oeste 9 Oeste 0 1016.5 0.5 85
2019-08-17 01:00:00 25.1 4 Sudoeste 11 Sudoeste 0 1016.5 1.1 85
2019-08-17 00:00:00 24.5 4 Oeste 7 Oeste 0 1016.3 1.2 84
2019-08-16 23:00:00 24.7 6 Oeste 8 Noroeste 0 1016 1 83
2019-08-16 22:00:00 25.5 5 Sudoeste 8 Sudoeste 0 1015.4 0.2 82
2019-08-16 21:00:00 26.2 5 Sudoeste 11 Sur 0 1015.1 -0.5 78
2019-08-16 20:00:00 27.2 5 Sur 16 Sur 0 1015 -1.1 74
2019-08-16 19:00:00 27.5 8 Sur 16 Sur 0 1015.2 -1.6 72
2019-08-16 18:00:00 27.8 10 Sudeste 18 Sudeste 0 1015.6 -1.3 70
2019-08-16 17:00:00 28.2 10 Sudeste 21 Sudeste 0 1016.1 -0.9 70
2019-08-16 16:00:00 28.5 12 Sudeste 24 Este 0 1016.8 -0.4 69
2019-08-16 15:00:00 28.9 13 Sudeste 26 Sudeste 0 1016.9 -0.6 67
2019-08-16 14:00:00 28.6 15 Sudeste 24 Sudeste 0 1017 -0.3 66
2019-08-16 13:00:00 28.6 13 Sudeste 20 Sudeste 0 1017.2 -0.1 65
2019-08-16 12:00:00 28.6 9 Sudeste 20 Este 0 1017.5 0.3 48
2019-08-16 11:00:00 29.8 14 Este 22 Este 0 1017.3 0.6 35
2019-08-16 10:00:00 26.9 8 Nordeste 12 Nordeste 0 1017.3 1 54
2019-08-16 09:00:00 21.9 4 Norte 7 Norte 0 1017.2 1 81
2019-08-16 08:00:00 19.8 6 Nordeste 10 Nordeste 0 1016.7 0.5 80
2019-08-16 07:00:00 19.9 8 Nordeste 9 Nordeste 0 1016.3 0.1 81
2019-08-16 06:00:00 20.2 5 Norte 9 Norte 0 1016.2 -0.3 82
2019-08-16 05:00:00 20.5 6 Norte 9 Noroeste 0 1016.2 -0.7 82
2019-08-16 04:00:00 20.9 7 Noroeste 9 Noroeste 0 1016.2 -0.8 82
2019-08-16 03:00:00 21.6 8 Noroeste 10 Noroeste 0 1016.5 -0.3 81
2019-08-16 02:00:00 22.3 7 Noroeste 9 Noroeste 0 1016.9 0.2 80
2019-08-16 01:00:00 23.3 4 Noroeste 9 Noroeste 0 1017 1 80
2019-08-16 00:00:00 23.8 7 Noroeste 10 Oeste 0 1016.8 0.8 76
2019-08-15 23:00:00 24.9 7 Oeste 9 Oeste 0 1016.7 1 72
2019-08-15 22:00:00 26.4 3 Oeste 5 Sudoeste 0 1016 0.1 63
2019-08-15 21:00:00 27.4 0 Calma 10 Oeste 0 1016 0 57
2019-08-15 20:00:00 27.4 4 Sudoeste 13 Sudeste 0 1015.7 -0.7 71
2019-08-15 19:00:00 28 7 Sudeste 15 Sudeste 0 1015.9 -0.8 72
2019-08-15 18:00:00 28.5 8 Sudeste 22 Sudeste 0 1016 -1.1 71
2019-08-15 17:00:00 28.6 12 Sudeste 23 Sudeste 0 1016.4 -0.8 70
2019-08-15 16:00:00 28.9 11 Sudeste 21 Sudeste 0 1016.7 -0.9 68
2019-08-15 15:00:00 28.3 13 Sudeste 24 Sudeste 0 1017.1 -0.5 68
2019-08-15 14:00:00 28.4 13 Sudeste 21 Sudeste 0 1017.2 -0.3 66
2019-08-15 13:00:00 28.7 10 Sudeste 21 Este 0 1017.6 0.2 62
2019-08-15 12:00:00 28.3 13 Este 21 Este 0 1017.6 0.6 62
2019-08-15 11:00:00 26.8 11 Este 19 Este 0 1017.5 0.7 72
2019-08-15 10:00:00 24.8 11 Este 19 Sudeste 0 1017.4 0.5 85
2019-08-15 09:00:00 23.3 5 Este 9 Este 0 1017 0.3 90
2019-08-15 08:00:00 20.7 8 Norte 9 Norte 0 1016.8 0 89
2019-08-15 07:00:00 21.4 2 Norte 6 Norte 0 1016.9 0 88
2019-08-15 06:00:00 21.4 6 Noroeste 8 Noroeste 0 1016.7 -0.5 87
2019-08-15 05:00:00 21.9 3 Noroeste 8 Noroeste 0 1016.8 -0.7 87
2019-08-15 04:00:00 22.1 6 Noroeste 8 Noroeste 0 1016.9 -0.8 86
2019-08-15 03:00:00 22.5 5 Noroeste 9 Noroeste 0 1017.2 -0.7 85
2019-08-15 02:00:00 23 8 Noroeste 11 Noroeste 0 1017.5 -0.1 84
2019-08-15 01:00:00 23.5 9 Noroeste 10 Noroeste 0 1017.7 1 83
2019-08-15 00:00:00 23.8 5 Noroeste 6 Noroeste 0 1017.9 1.5 81
2019-08-14 23:00:00 24.7 2 Sudoeste 4 Sur 0 1017.6 1.3 79
2019-08-14 22:00:00 25.1 2 Este 9 Sudeste 0 1016.7 0 78
2019-08-14 21:00:00 25.8 4 Sudeste 10 Sudeste 0 1016.4 -0.6 76
2019-08-14 20:00:00 26.7 5 Sur 12 Sur 0 1016.3 -1 73
2019-08-14 19:00:00 26.9 8 Sudoeste 14 Sudoeste 0 1016.7 -1 72
2019-08-14 18:00:00 27.4 8 Sur 15 Sur 0 1017 -1.3 70
2019-08-14 17:00:00 27.5 9 Sur 19 Sudeste 0 1017.3 -1.6 71
2019-08-14 16:00:00 28.2 10 Sudeste 22 Este 0 1017.7 -1.6 67
2019-08-14 15:00:00 27.8 11 Sudeste 20 Sudeste 0 1018.3 -1 68
2019-08-14 14:00:00 27.7 12 Sudeste 20 Sudeste 0 1018.9 -0.1 69
2019-08-14 13:00:00 27.5 10 Sudeste 19 Sudeste 0 1019.3 0.3 68
2019-08-14 12:00:00 27.6 11 Sudeste 27 Sudeste 0 1019.3 0.6 65
2019-08-14 11:00:00 27.3 16 Este 28 Este 0 1019 0.5 66
2019-08-14 10:00:00 26 13 Este 22 Este 0 1019 0.7 72
2019-08-14 09:00:00 23.9 10 Nordeste 21 Nordeste 0 1018.7 0.6 85
2019-08-14 08:00:00 22 8 Nordeste 10 Este 0 1018.5 0.5 87
2019-08-14 07:00:00 22.5 8 Este 11 Este 0 1018.3 0.4 86
2019-08-14 06:00:00 23.1 4 Nordeste 19 Este 0 1018.1 -0.1 86
2019-08-14 05:00:00 23.5 12 Este 21 Este 0 1018 -0.2 87
2019-08-14 04:00:00 23.2 10 Este 15 Nordeste 0 1017.9 -0.3 87
2019-08-14 03:00:00 23.2 5 Nordeste 9 Este 0 1018.2 0.1 87
2019-08-14 02:00:00 24 6 Este 16 Este 0 1018.2 0.6 87
2019-08-14 01:00:00 24.2 10 Este 14 Este 0 1018.2 1.3 86
2019-08-14 00:00:00 24.4 9 Este 23 Sudeste 0 1018.1 1.7 85
2019-08-13 23:00:00 24.6 16 Este 26 Este 0 1017.6 1.5 84
2019-08-13 22:00:00 24.8 16 Sudeste 25 Sudeste 0 1016.9 0.8 83
2019-08-13 21:00:00 25.3 13 Sudeste 26 Este 0 1016.4 0.4 80
2019-08-13 20:00:00 26.3 16 Sudeste 30 Este 0 1016.1 -0.2 75
2019-08-13 19:00:00 27.3 18 Sudeste 31 Sudeste 0 1016.1 -0.2 72
2019-08-13 18:00:00 27.6 15 Sudeste 29 Sudeste 0 1016 -0.4 71
2019-08-13 17:00:00 27.3 15 Sudeste 35 Este 0 1016.3 0.1 72
2019-08-13 16:00:00 28.5 23 Sudeste 42 Este 0 1016.3 0.3 67
2019-08-13 15:00:00 28.4 21 Sudeste 40 Sudeste 0 1016.4 0.5 67
2019-08-13 14:00:00 28.7 16 Sudeste 32 Sudeste 0 1016.2 0.3 64
2019-08-13 13:00:00 28.8 18 Sudeste 32 Sudeste 0 1016 0.4 60
2019-08-13 12:00:00 28.9 19 Este 33 Sudeste 0 1015.9 0.5 58
2019-08-13 11:00:00 28 15 Este 24 Este 0 1015.9 0.6 63
2019-08-13 10:00:00 27.6 10 Este 18 Este 0 1015.6 0.6 63
2019-08-13 09:00:00 23.9 3 Nordeste 10 Norte 0 1015.4 1.1 80
2019-08-13 08:00:00 23.3 7 Nordeste 20 Sudeste 0 1015.3 1.2 80
2019-08-13 07:00:00 24 16 Este 25 Sudeste 0 1015 0.5 81
2019-08-13 06:00:00 23.8 13 Este 20 Este 0 1014.3 -0.9 82
2019-08-13 05:00:00 23.7 10 Este 22 Este 0 1014.1 -1.7 81
2019-08-13 04:00:00 23.6 11 Este 18 Este 0 1014.5 -1.6 85
2019-08-13 03:00:00 24.5 11 Este 17 Este 0 1015.2 -0.6 83
2019-08-13 02:00:00 24.5 10 Este 15 Este 0 1015.8 0.7 83
2019-08-13 01:00:00 24.3 6 Este 14 Este 0 1016.1 1.8 80
2019-08-13 00:00:00 24.9 10 Este 20 Este 0 1015.8 2.4 75
2019-08-12 23:00:00 25.2 12 Este 21 Este 0 1015.1 2.6 64
2019-08-12 22:00:00 24.6 11 Este 17 Este 0 1014.3 1.9 57
2019-08-12 21:00:00 26.1 10 Este 19 Este 0 1013.4 0.7 54
2019-08-12 20:00:00 26.5 7 Sudeste 15 Este 0 1012.5 -1.2 61
2019-08-12 19:00:00 27.1 4 Sudeste 14 Este 0 1012.4 -1.3 55
2019-08-12 18:00:00 26.8 5 Sur 15 Oeste 0 1012.7 -1.2 54
2019-08-12 17:00:00 26.4 6 Sudoeste 19 Oeste 0 1013.7 -0.5 57
2019-08-12 16:00:00 26.2 7 Sudoeste 18 Sudoeste 0 1013.7 -0.5 58
2019-08-12 15:00:00 25.4 9 Sudoeste 18 Sudoeste 0 1013.9 0.1 63
2019-08-12 14:00:00 24.9 11 Sudoeste 19 Sudoeste 0 1014.2 1.1 66
2019-08-12 13:00:00 24.5 10 Sudoeste 17 Sudoeste 0 1014.2 1.6 68
2019-08-12 12:00:00 24.4 10 Sudeste 17 Este 0 1013.8 1.7 77
2019-08-12 11:00:00 24.6 9 Sudeste 17 Sudeste 0 1013.1 1.6 76
2019-08-12 10:00:00 23.5 10 Este 17 Este 0 1012.6 1.5 85
2019-08-12 09:00:00 21.3 6 Nordeste 9 Nordeste 0 1012.1 1.3 90
2019-08-12 08:00:00 18.2 8 Nordeste 11 Sur 0 1011.5 0.5 89
2019-08-12 07:00:00 18.4 4 Norte 12 Noroeste 0 1011.1 -0.8 88
2019-08-12 06:00:00 19.5 10 Oeste 14 Noroeste 0 1010.8 -1.6 88
2019-08-12 05:00:00 19.1 12 Noroeste 14 Noroeste 0 1011 -1.9 87
2019-08-12 04:00:00 19.4 8 Noroeste 14 Oeste 0 1011.9 -1 86
2019-08-12 03:00:00 20.1 6 Noroeste 12 Oeste 0 1012.4 -0.5 85
2019-08-12 02:00:00 20.8 5 Sudoeste 12 Oeste 0 1012.9 0.2 84
2019-08-12 01:00:00 21.9 6 Sur 10 Sur 0 1012.9 0.8 82
2019-08-12 00:00:00 22.3 8 Sudoeste 17 Sur 0 1012.9 1.8 81
2019-08-11 23:00:00 22.5 5 Oeste 21 Sudoeste 0 1012.7 1.9 78
2019-08-11 22:00:00 23 11 Sudoeste 22 Sudoeste 0 1012.1 1.4 78
2019-08-11 21:00:00 23.9 15 Oeste 31 Oeste 0 1011.1 -0.3 71
2019-08-11 20:00:00 24.4 15 Oeste 28 Sudoeste 0 1010.8 -1.6 71
2019-08-11 19:00:00 25.3 14 Oeste 34 Oeste 0 1010.7 -2.3 66
2019-08-11 18:00:00 25.8 13 Oeste 32 Sudoeste 0 1011.4 -1.8 63
2019-08-11 17:00:00 24.6 22 Sudoeste 39 Sudoeste 0 1012.4 -1.2 66
2019-08-11 16:00:00 26.6 18 Sudoeste 36 Oeste 0 1013 -0.9 62
2019-08-11 15:00:00 25.6 18 Sudoeste 29 Sudoeste 0 1013.2 -1 69
2019-08-11 14:00:00 25.5 16 Sudoeste 26 Oeste 0 1013.6 -0.2 68
2019-08-11 13:00:00 25.8 12 Oeste 24 Sudoeste 0 1013.9 0.6 64
2019-08-11 12:00:00 25.3 9 Oeste 21 Sudoeste 0 1014.2 1.6 73
2019-08-11 11:00:00 23.7 13 Sudoeste 19 Sudoeste 0 1013.8 1.2 79
2019-08-11 10:00:00 22.9 5 Sudoeste 17 Oeste 0 1013.3 1.5 84
2019-08-11 09:00:00 22.1 5 Sudoeste 13 Sudoeste 0 1012.6 1.1 88
2019-08-11 08:00:00 21.9 9 Oeste 35 Sur 0 1012.6 0 88
2019-08-11 07:00:00 22.3 19 Oeste 36 Sudoeste 0 1011.8 -1.3 89
2019-08-11 06:00:00 22.3 16 Oeste 28 Noroeste 0 1011.5 -2.6 89
2019-08-11 05:00:00 22.2 13 Oeste 20 Oeste 0 1012.6 -0.9 89
2019-08-11 04:00:00 22.1 9 Oeste 16 Norte 0 1013.1 -1.2 88
2019-08-11 03:00:00 21.8 6 Noroeste 15 Sur 0 1014.1 -1.3 88
2019-08-11 02:00:00 21.6 3 Nordeste 7 Norte 0 1013.5 -1.6 87
2019-08-11 01:00:00 21.8 3 Noroeste 15 Noroeste 0 1014.3 0.3 87
2019-08-11 00:00:00 22.5 9 Sudoeste 12 Sudoeste 0 1015.4 2.4 86
2019-08-10 23:00:00 22.9 6 Sur 13 Sur 0 1015.1 2.6 85
2019-08-10 22:00:00 23.4 8 Sur 16 Sudoeste 0 1014 1.5 83
2019-08-10 21:00:00 24 10 Sur 15 Sudoeste 0 1013 0.3 79
2019-08-10 20:00:00 25.1 7 Sudoeste 22 Sudoeste 0 1012.5 -0.7 75
2019-08-10 19:00:00 25.7 12 Sudoeste 25 Sudoeste 0 1012.5 -1.8 72
2019-08-10 18:00:00 27.7 11 Oeste 26 Oeste 0 1012.7 -2.4 63
2019-08-10 17:00:00 32 18 Oeste 33 Oeste 0 1013.2 -2.6 46
2019-08-10 16:00:00 30.4 23 Oeste 39 Oeste 0 1014.3 -1.8 48
2019-08-10 15:00:00 26.4 14 Oeste 27 Oeste 0 1015.1 -1.2 69
2019-08-10 14:00:00 26 14 Oeste 33 Oeste 0 1015.8 -0.1 71
2019-08-10 13:00:00 25.7 14 Sudoeste 23 Sudoeste 0 1016.1 0.3 71
2019-08-10 12:00:00 25.1 10 Oeste 28 Sudoeste 0 1016.3 1.8 73
2019-08-10 11:00:00 24.5 10 Oeste 24 Oeste 0 1015.9 2.7 81
2019-08-10 10:00:00 22.5 9 Sudoeste 15 Oeste 0 1015.8 2.9 88
2019-08-10 09:00:00 22.5 8 Sur 24 Sur 0 1014.5 1.1 89
2019-08-10 08:00:00 21.1 4 Noroeste 24 Oeste 0 1013.2 -0.8 89
2019-08-10 07:00:00 21.9 15 Oeste 25 Oeste 0 1012.9 -0.9 89
2019-08-10 06:00:00 21.9 14 Noroeste 35 Oeste 0 1013.4 -0.7 89
2019-08-10 05:00:00 22.2 15 Sudoeste 24 Oeste 0 1014 -0.3 89
2019-08-10 04:00:00 21.9 10 Noroeste 23 Oeste 0 1013.8 -0.3 88
2019-08-10 03:00:00 22.6 14 Oeste 21 Oeste 0 1014.1 0.4 88
2019-08-10 02:00:00 22.4 9 Oeste 19 Oeste 0 1014.3 1.2 87
2019-08-10 01:00:00 22.8 10 Oeste 19 Sudoeste 0 1014.1 1.8 87
2019-08-10 00:00:00 23 12 Sudoeste 21 Oeste 0 1013.7 2 85
2019-08-09 23:00:00 23.1 13 Oeste 28 Oeste 0 1013.1 1.7 83
2019-08-09 22:00:00 23.6 15 Oeste 28 Oeste 0 1012.3 0.6 82
2019-08-09 21:00:00 24.5 19 Oeste 33 Oeste 0 1011.7 -0.2 77
2019-08-09 20:00:00 26.5 11 Oeste 21 Oeste 0 1011.4 -1.4 65
2019-08-09 19:00:00 27.5 12 Sudoeste 33 Sudoeste 0 1011.7 -2 60
2019-08-09 18:00:00 29.5 20 Oeste 45 Oeste 0 1011.9 -2.2 45
2019-08-09 17:00:00 27.8 11 Oeste 28 Oeste 0 1012.8 -1.5 64
2019-08-09 16:00:00 27.1 13 Oeste 34 Oeste 0 1013.7 -0.6 69
2019-08-09 15:00:00 26.5 18 Oeste 37 Oeste 0 1014.1 0 71
2019-08-09 14:00:00 26.7 16 Oeste 30 Oeste 0 1014.3 0.3 70
2019-08-09 13:00:00 25.6 17 Oeste 37 Sudoeste 0 1014.3 0.5 73
2019-08-09 12:00:00 26.1 12 Oeste 30 Sudoeste 0 1014.1 0.9 74
2019-08-09 11:00:00 24.8 17 Sudoeste 28 Sudoeste 0 1014 1 84
2019-08-09 10:00:00 23.6 9 Oeste 23 Sudoeste 0 1013.8 0.9 90
2019-08-09 09:00:00 22.9 10 Sudoeste 18 Sudoeste 0 1013.2 -0.1 91
2019-08-09 08:00:00 21.6 6 Oeste 13 Oeste 0 1013 -0.5 90
2019-08-09 07:00:00 21.5 10 Oeste 17 Oeste 0 1012.9 -0.4 90
2019-08-09 06:00:00 21.6 11 Oeste 19 Oeste 0 1013.3 -0.4 90
2019-08-09 05:00:00 22.3 12 Oeste 19 Sudoeste 0 1013.5 -0.2 90
2019-08-09 04:00:00 22.7 7 Oeste 10 Oeste 0 1013.3 -0.5 91
2019-08-09 03:00:00 23.3 6 Oeste 15 Oeste 0 1013.7 0.3 91
2019-08-09 02:00:00 23.7 6 Oeste 18 Oeste 0 1013.7 0.6 90
2019-08-09 01:00:00 23.8 9 Oeste 17 Oeste 0 1013.8 1.9 90
2019-08-09 00:00:00 24 5 Oeste 10 Oeste 0 1013.4 1.8 89
2019-08-08 23:00:00 24.3 8 Sudoeste 13 Sudoeste 0 1013.1 1.6 88
2019-08-08 22:00:00 24.5 6 Oeste 15 Oeste 0 1011.9 0 85
2019-08-08 21:00:00 25.3 6 Oeste 15 Sudoeste 0 1011.6 -0.5 81
2019-08-08 20:00:00 26.4 8 Oeste 15 Sudoeste 0 1011.5 -1.1 76
2019-08-08 19:00:00 26.4 9 Sudoeste 15 Sur 0 1011.9 -1.4 71
2019-08-08 18:00:00 27.8 7 Sur 14 Sur 0 1012.1 -1.3 64
2019-08-08 17:00:00 27.3 9 Sur 15 Sudoeste 0 1012.6 -0.8 64
2019-08-08 16:00:00 26.7 6 Sur 19 Sur 0 1013.3 -0.2 68
2019-08-08 15:00:00 27.6 12 Sur 20 Sur 0 1013.4 0 69
2019-08-08 14:00:00 27.8 10 Sudeste 17 Sudeste 0 1013.4 0.4 65
2019-08-08 13:00:00 26.8 5 Sur 13 Sudeste 0 1013.5 0.9 69
2019-08-08 12:00:00 25.9 7 Sudeste 13 Sudeste 0 1013.4 0.9 73
2019-08-08 11:00:00 25.2 5 Sudeste 12 Sudeste 0 1013 1.1 81
2019-08-08 10:00:00 23.7 4 Este 8 Nordeste 0 1012.6 1.2 90
2019-08-08 09:00:00 22.3 3 Nordeste 5 Nordeste 0 1012.5 1.7 91
2019-08-08 08:00:00 20.2 3 Este 8 Sudeste 0 1011.9 0.9 90
2019-08-08 07:00:00 22.1 7 Sudeste 10 Sudeste 0 1011.4 0.7 90
2019-08-08 06:00:00 21.6 5 Sudeste 12 Nordeste 0 1010.8 -0.1 90
2019-08-08 05:00:00 20.3 8 Norte 10 Norte 0 1011 -0.4 89
2019-08-08 04:00:00 20.6 2 Norte 6 Sur 0 1010.7 -0.8 88
2019-08-08 03:00:00 21.4 2 Sudoeste 9 Norte 0 1010.9 -0.7 87
2019-08-08 02:00:00 22.1 4 Sudeste 8 Sudeste 0 1011.4 0.1 86
2019-08-08 01:00:00 22.2 2 Norte 6 Sudoeste 0 1011.5 1.2 84
2019-08-08 00:00:00 23.2 4 Sudoeste 11 Sudoeste 0 1011.6 2.3 84
2019-08-07 23:00:00 23.5 9 Sudoeste 13 Sudoeste 0 1011.3 2.3 84
2019-08-07 22:00:00 24 8 Sur 18 Oeste 0 1010.3 0.9 81
2019-08-07 21:00:00 24.6 11 Oeste 25 Oeste 0 1009.3 -0.2 79
2019-08-07 20:00:00 25.4 17 Oeste 31 Noroeste 0 1009 -0.8 74
2019-08-07 19:00:00 25.7 20 Oeste 31 Oeste 0 1009.4 -1.2 72
2019-08-07 18:00:00 27.6 13 Oeste 27 Oeste 0 1009.5 -1.4 62
2019-08-07 17:00:00 27.1 13 Sudoeste 27 Sudoeste 0 1009.8 -1 66
2019-08-07 16:00:00 27.8 14 Oeste 29 Sudoeste 0 1010.6 -0.5 63
2019-08-07 15:00:00 27.7 16 Sudoeste 32 Sudoeste 0 1010.9 -0.1 61
2019-08-07 14:00:00 27.7 18 Sudoeste 33 Sudoeste 0 1010.8 0.5 63
2019-08-07 13:00:00 27.4 21 Sudoeste 39 Oeste 0 1011.1 0.8 64
2019-08-07 12:00:00 26.6 14 Oeste 33 Oeste 0 1011 1.5 70
2019-08-07 11:00:00 25.6 16 Oeste 32 Oeste 0 1010.3 0.5 76
2019-08-07 10:00:00 24.1 19 Oeste 39 Sur 0 1010.3 0.7 85
2019-08-07 09:00:00 23.3 18 Noroeste 34 Noroeste 0 1009.5 -0.1 87
2019-08-07 08:00:00 22.7 15 Noroeste 28 Oeste 0 1009.8 0.4 87
2019-08-07 07:00:00 22.7 15 Oeste 30 Oeste 0 1009.6 -0.2 84
2019-08-07 06:00:00 23.2 14 Oeste 34 Oeste 0 1009.6 -0.3 82
2019-08-07 05:00:00 23.6 24 Oeste 35 Oeste 0 1009.4 -0.6 79
2019-08-07 04:00:00 23.3 21 Oeste 32 Oeste 0 1009.8 -0.3 80
2019-08-07 03:00:00 24.1 8 Oeste 23 Oeste 0 1009.9 -0.7 75
2019-08-07 02:00:00 23 8 Noroeste 18 Noroeste 0 1010 -0.9 79
2019-08-07 01:00:00 23.7 9 Oeste 17 Oeste 0 1010.1 -0.2 81
2019-08-07 00:00:00 23.7 7 Oeste 27 Sudoeste 0 1010.6 0.3 85
2019-08-06 23:00:00 24.8 23 Sudoeste 29 Oeste 0 1010.9 1.3 82
2019-08-06 22:00:00 24.9 16 Oeste 27 Noroeste 0 1010.3 1.2 83
2019-08-06 21:00:00 25.1 13 Oeste 24 Oeste 0 1010.3 0.6 78
2019-08-06 20:00:00 26.4 13 Oeste 30 Sudoeste 0 1009.6 -0.6 73
2019-08-06 19:00:00 27.4 12 Oeste 27 Oeste 0 1009.1 -2 68
2019-08-06 18:00:00 27.8 12 Oeste 24 Oeste 0 1009.7 -2.4 66
2019-08-06 17:00:00 27.8 13 Oeste 26 Sudoeste 0 1010.2 -2.1 63
2019-08-06 16:00:00 28.4 11 Oeste 23 Oeste 0 1011.1 -2.1 59
2019-08-06 15:00:00 27.2 14 Sudoeste 21 Oeste 0 1012.1 -1.1 69
2019-08-06 14:00:00 26.8 10 Sudoeste 17 Sudoeste 0 1012.3 -1.3 70
2019-08-06 13:00:00 26.6 9 Sur 15 Sudoeste 0 1013.2 -0.1 68
2019-08-06 12:00:00 25.8 5 Sudoeste 14 Sudoeste 0 1013.2 0.1 70
2019-08-06 11:00:00 25.1 9 Sudoeste 14 Sudoeste 0 1013.6 0.6 72
2019-08-06 10:00:00 23.6 7 Sudoeste 12 Sur 0 1013.3 0.5 86
2019-08-06 09:00:00 23.3 5 Oeste 10 Noroeste 0 1013.1 1.1 89
2019-08-06 08:00:00 21.9 9 Oeste 12 Oeste 0 1013 0.8 89
2019-08-06 07:00:00 22.7 2 Noroeste 9 Oeste 0 1012.8 0.5 89
2019-08-06 06:00:00 23 6 Oeste 17 Oeste 0 1012 -1.2 89
2019-08-06 05:00:00 23.2 5 Oeste 18 Oeste 0 1012.2 -1.3 88
2019-08-06 04:00:00 22.4 7 Noroeste 11 Noroeste 0 1012.3 -1.1 86
2019-08-06 03:00:00 22.9 3 Oeste 14 Noroeste 0 1013.2 -0.3 85
2019-08-06 02:00:00 23.7 5 Oeste 14 Noroeste 0 1013.5 0.2 84
2019-08-06 01:00:00 22.9 9 Noroeste 11 Noroeste 0 1013.4 1 82
2019-08-06 00:00:00 23.7 4 Oeste 10 Sudoeste 0 1013.5 1.8 82
2019-08-05 23:00:00 24.2 5 Sudoeste 12 Sudoeste 0 1013.3 2.1 81
2019-08-05 22:00:00 24.6 7 Sudoeste 16 Sudoeste 0 1012.4 1.5 79
2019-08-05 21:00:00 26 12 Oeste 19 Oeste 0 1011.7 0.2 67
2019-08-05 20:00:00 27 10 Oeste 24 Sudoeste 0 1011.2 -0.8 68
2019-08-05 19:00:00 28.2 13 Oeste 30 Oeste 0 1010.9 -1.9 60
2019-08-05 18:00:00 28.5 13 Oeste 28 Sudoeste 0 1011.5 -1.7 57
2019-08-05 17:00:00 29.4 13 Oeste 23 Oeste 0 1012 -1.4 53
2019-08-05 16:00:00 29.2 13 Oeste 27 Oeste 0 1012.8 -0.9 55
2019-08-05 15:00:00 29.3 12 Oeste 21 Sudoeste 0 1013.2 -0.9 52
2019-08-05 14:00:00 27.2 10 Sudoeste 16 Sur 0 1013.4 -1 63
2019-08-05 13:00:00 26.8 9 Sur 15 Sur 0 1013.7 -0.4 66
2019-08-05 12:00:00 26.7 7 Sudeste 13 Sudeste 0 1014.1 0.4 66
2019-08-05 11:00:00 25.3 5 Sur 11 Sudeste 0 1014.4 0.3 80
2019-08-05 10:00:00 24.1 7 Sudeste 14 Sur 0 1014.1 0.6 88
2019-08-05 09:00:00 23.3 8 Norte 13 Norte 0 1013.7 0.4 90
2019-08-05 08:00:00 22.6 0 Calma 11 Sur 0 1014.1 1.3 90
2019-08-05 07:00:00 22.9 6 Sudeste 9 Sudeste 0 1013.5 0.6 90
2019-08-05 06:00:00 23.1 8 Sur 12 Oeste 0 1013.3 0.1 89
2019-08-05 05:00:00 22.4 3 Oeste 15 Noroeste 0 1012.8 -0.7 89
2019-08-05 04:00:00 22.5 10 Noroeste 17 Oeste 0 1012.9 -1.4 89
2019-08-05 03:00:00 22.7 6 Oeste 13 Oeste 0 1013.2 -0.9 88
2019-08-05 02:00:00 22.5 9 Norte 12 Norte 0 1013.5 -0.7 88
2019-08-05 01:00:00 23.2 3 Oeste 13 Sudoeste 0 1014.3 1.2 88
2019-08-05 00:00:00 23.7 6 Sudoeste 9 Sudoeste 0 1014.1 1.9 86
2019-08-04 23:00:00 24.1 7 Oeste 16 Sudoeste 0 1014.2 2.4 84
2019-08-04 22:00:00 24.4 7 Oeste 14 Sudoeste 0 1013.1 1.1 81
2019-08-04 21:00:00 25 8 Oeste 25 Oeste 0 1012.2 -0.3 76
2019-08-04 20:00:00 26.3 12 Oeste 26 Sudoeste 0 1011.8 -1.3 69
2019-08-04 19:00:00 27.2 11 Oeste 27 Oeste 0 1012 -1.7 64
2019-08-04 18:00:00 27.7 13 Oeste 31 Oeste 0 1012.5 -1.4 64
2019-08-04 17:00:00 27.7 14 Oeste 28 Oeste 0 1013.1 -1.1 66
2019-08-04 16:00:00 27.7 14 Oeste 31 Oeste 0 1013.7 -0.7 67
2019-08-04 15:00:00 27.8 13 Oeste 23 Sudoeste 0 1013.9 -0.6 66
2019-08-04 14:00:00 28 11 Oeste 24 Sudoeste 0 1014.2 -0.4 63
2019-08-04 13:00:00 26.6 11 Oeste 21 Sudoeste 0 1014.4 -0.2 72
2019-08-04 12:00:00 26.1 10 Oeste 20 Sudoeste 0 1014.5 0.4 77
2019-08-04 11:00:00 25.3 12 Sudoeste 19 Sudoeste 0 1014.6 1.1 82
2019-08-04 10:00:00 24.5 10 Sudoeste 21 Sudoeste 0 1014.6 1.7 87
2019-08-04 09:00:00 24.1 9 Oeste 16 Sudoeste 0 1014.1 2 88
2019-08-04 08:00:00 23.6 4 Oeste 14 Sudoeste 0 1013.5 1 86
2019-08-04 07:00:00 23.7 4 Sudoeste 17 Sudoeste 0 1012.9 -0.4 84
2019-08-04 06:00:00 23.4 4 Oeste 16 Oeste 0 1012.1 -2 82
2019-08-04 05:00:00 23.7 10 Oeste 17 Noroeste 0 1012.5 -1.7 81
2019-08-04 04:00:00 23.3 11 Noroeste 14 Noroeste 0 1013.3 -1.3 83
2019-08-04 03:00:00 24.3 6 Oeste 12 Sudoeste 0 1014.1 -0.1 82
2019-08-04 02:00:00 24.3 7 Noroeste 8 Oeste 0 1014.2 0.6 83
2019-08-04 01:00:00 24.6 2 Oeste 4 Sudoeste 0 1014.6 1.5 83
2019-08-04 00:00:00 24.9 0 Calma 10 Oeste 0 1014.2 1.9 81
2019-08-03 23:00:00 25 7 Noroeste 17 Oeste 0 1013.6 1.6 77
2019-08-03 22:00:00 25.5 11 Oeste 24 Oeste 0 1013.1 0.6 76
2019-08-03 21:00:00 26.4 13 Oeste 19 Oeste 0 1012.3 -0.7 74
2019-08-03 20:00:00 27.7 9 Oeste 22 Oeste 0 1012 -1.7 67
2019-08-03 19:00:00 27.9 14 Oeste 21 Oeste 0 1012.5 -1.6 66
2019-08-03 18:00:00 28.3 15 Oeste 23 Oeste 0 1013 -1.2 65
2019-08-03 17:00:00 28.6 9 Oeste 18 Oeste 0 1013.7 -0.9 66
2019-08-03 16:00:00 28 10 Sudoeste 17 Oeste 0 1014.1 -0.6 68
2019-08-03 15:00:00 27.3 9 Sudoeste 19 Sur 0 1014.2 -0.5 71
2019-08-03 14:00:00 27.2 13 Sur 20 Sur 0 1014.6 -0.4 72
2019-08-03 13:00:00 27.5 12 Sur 18 Sur 0 1014.7 -0.3 70
2019-08-03 12:00:00 27.7 9 Sudeste 15 Sudeste 0 1014.7 0.5 68
2019-08-03 11:00:00 25.8 8 Sudeste 13 Este 0 1015 1.3 82
2019-08-03 10:00:00 24.3 5 Este 13 Este 0 1015 1 90
2019-08-03 09:00:00 23.6 6 Nordeste 10 Este 0 1014.2 0.6 91
2019-08-03 08:00:00 21.7 4 Este 8 Nordeste 0 1013.7 0.5 89
2019-08-03 07:00:00 22.2 3 Sudoeste 5 Oeste 0 1014 0.6 90
2019-08-03 06:00:00 22.2 4 Oeste 6 Sudoeste 0 1013.6 -0.3 89
2019-08-03 05:00:00 21.7 4 Noroeste 8 Oeste 0 1013.2 -0.8 89
2019-08-03 04:00:00 23.1 4 Oeste 6 Oeste 0 1013.4 -1.2 89
2019-08-03 03:00:00 23.4 5 Oeste 11 Sudoeste 0 1013.9 -0.9 88
2019-08-03 02:00:00 23.1 3 Noroeste 8 Norte 0 1014 -0.3 86
2019-08-03 01:00:00 22.6 4 Norte 6 Norte 0 1014.6 0.9 85
2019-08-03 00:00:00 23.5 3 Nordeste 9 Sudeste 0 1014.8 1.8 85
2019-08-02 23:00:00 24.2 6 Sudeste 11 Sudeste 0 1014.3 1.9 84
2019-08-02 22:00:00 24.8 3 Sur 8 Sudoeste 0 1013.7 1.4 82
2019-08-02 21:00:00 25.2 7 Sudoeste 14 Sudoeste 0 1013 0.2 80
2019-08-02 20:00:00 26.3 8 Oeste 20 Sudoeste 0 1012.4 -1.2 75
2019-08-02 19:00:00 26.5 16 Sudoeste 23 Sudoeste 0 1012.3 -1.7 74
2019-08-02 18:00:00 27.7 9 Oeste 20 Sudoeste 0 1012.8 -1.8 66
2019-08-02 17:00:00 27 14 Sudoeste 22 Sudoeste 0 1013.6 -1.6 68
2019-08-02 16:00:00 26.6 15 Sudoeste 21 Sudoeste 0 1014 -1 68
2019-08-02 15:00:00 26.6 8 Sur 16 Sur 0 1014.6 0.3 66
2019-08-02 14:00:00 25.6 10 Sur 19 Sudoeste 0 1015.2 1 74
2019-08-02 13:00:00 25.7 13 Sudoeste 20 Sudoeste 0 1015 1.1 74
2019-08-02 12:00:00 26.1 10 Oeste 21 Oeste 0 1014.3 1.3 72
2019-08-02 11:00:00 25 10 Oeste 17 Sudoeste 0 1014.2 1.6 77
2019-08-02 10:00:00 23.6 8 Sudoeste 15 Sudoeste 0 1013.9 1.1 86
2019-08-02 09:00:00 23 7 Sudoeste 11 Sudoeste 0 1013 1 89
2019-08-02 08:00:00 21.9 4 Noroeste 17 Sur 0 1012.6 0.3 90
2019-08-02 07:00:00 22.6 11 Sur 18 Sur 0 1012.8 -0.4 89
2019-08-02 06:00:00 22.8 8 Sudoeste 13 Sudoeste 0 1012 -1.4 88
2019-08-02 05:00:00 22.6 4 Noroeste 19 Sur 0 1012.3 -1.5 88
2019-08-02 04:00:00 23.1 14 Sudoeste 21 Sur 0 1013.2 0.4 86
2019-08-02 03:00:00 23.5 6 Oeste 18 Oeste 0 1013.4 0.3 82
2019-08-02 02:00:00 23.2 6 Sudoeste 21 Oeste 0 1013.8 0.8 80
2019-08-02 01:00:00 23.3 4 Noroeste 9 Noroeste 0 1012.8 -0.1 75
2019-08-02 00:00:00 23.9 4 Oeste 10 Oeste 0 1013.1 1.2 73
2019-08-01 23:00:00 23.8 7 Noroeste 12 Noroeste 0 1013 1.8 72
2019-08-01 22:00:00 25 6 Oeste 15 Oeste 0 1012.9 2.2 73
2019-08-01 21:00:00 26.1 10 Oeste 18 Oeste 0 1011.9 0.6 63
2019-08-01 20:00:00 27.2 9 Oeste 20 Oeste 0 1011.2 -0.4 62
2019-08-01 19:00:00 27.7 15 Oeste 29 Oeste 0 1010.7 -1 60
2019-08-01 18:00:00 28.4 19 Oeste 28 Oeste 0 1011.3 -1.2 55
2019-08-01 17:00:00 28.3 13 Sudoeste 23 Sudoeste 0 1011.6 -1.6 58
2019-08-01 16:00:00 28.3 12 Sudoeste 18 Sudoeste 0 1011.7 -1.8 55
2019-08-01 15:00:00 28.2 10 Sudoeste 19 Sudoeste 0 1012.5 -1.1 55
2019-08-01 14:00:00 28.5 12 Sudoeste 21 Sudoeste 0 1013.2 1 54
2019-08-01 13:00:00 28.1 8 Oeste 18 Oeste 0 1013.5 0.4 54
2019-08-01 12:00:00 26.3 9 Sudoeste 28 Sudoeste 0 1013.6 0.5 66
2019-08-01 11:00:00 26.2 14 Sur 50 Nordeste 0 1012.2 0.6 62
2019-08-01 10:00:00 23.3 10 Oeste 26 Oeste 0 1013.1 1.4 85
2019-08-01 09:00:00 22.8 12 Oeste 22 Oeste 0 1013.1 0.6 87
2019-08-01 08:00:00 22.2 9 Oeste 13 Oeste 0 1011.6 -0.8 88
2019-08-01 07:00:00 22 10 Norte 17 Norte 0 1011.7 -1.1 88
2019-08-01 06:00:00 22.5 6 Oeste 10 Oeste 0 1012.5 -0.2 87
2019-08-01 05:00:00 21.8 3 Norte 14 Oeste 0 1012.4 -0.1 86
2019-08-01 04:00:00 22.4 6 Oeste 21 Noroeste 0 1012.8 0.8 86
2019-08-01 03:00:00 22.8 14 Oeste 26 Oeste 0 1012.7 1.5 85
2019-08-01 02:00:00 23.2 17 Oeste 30 Oeste 0 1012.5 1.1 82
2019-08-01 01:00:00 23.9 13 Oeste 21 Noroeste 0 1012 0.5 75
2019-08-01 00:00:00 25.3 15 Nordeste 31 Este 0 1011.2 -0.5 65
2019-07-31 23:00:00 25.5 7 Este 17 Este 0 1011.4 0.9 66
2019-07-31 22:00:00 25.5 12 Nordeste 24 Nordeste 0 1011.5 1.7 65
2019-07-31 21:00:00 25 13 Sudoeste 35 Oeste 0 1011.7 2.2 72
2019-07-31 20:00:00 26.3 15 Oeste 47 Noroeste 0 1010.5 1.7 67
2019-07-31 19:00:00 28.7 6 Este 49 Sudeste 0 1009.8 0.2 59
2019-07-31 18:00:00 27.5 27 Sudeste 53 Sudeste 0 1009.5 -1.1 66
2019-07-31 17:00:00 29.9 32 Este 54 Este 0 1008.8 -2.1 53
2019-07-31 16:00:00 29.9 37 Este 60 Este 0 1009.6 -0.7 52
2019-07-31 15:00:00 29.6 39 Este 62 Este 0 1010.6 -1.3 54
2019-07-31 14:00:00 30.8 28 Este 68 Este 0 1010.9 -2.7 46
2019-07-31 13:00:00 29.6 43 Este 71 Este 0 1010.3 -2.6 45
2019-07-31 12:00:00 30.8 40 Este 65 Este 0 1011.9 -0.2 38
2019-07-31 11:00:00 28.5 20 Este 34 Este 0 1013.6 0.9 54
2019-07-31 10:00:00 25.4 9 Este 44 Nordeste 0 1012.9 1.9 65
2019-07-31 09:00:00 24.7 16 Nordeste 26 Nordeste 0 1012.1 2.9 67
2019-07-31 08:00:00 24.3 8 Noroeste 27 Nordeste 0 1012.7 5 69
2019-07-31 07:00:00 25.1 7 Este 50 Sudeste 0 1011 0 61
2019-07-31 06:00:00 25 32 Sudeste 55 Este 0 1009.2 -4.1 61
2019-07-31 05:00:00 25.7 31 Este 64 Este 0 1007.7 -6.5 63
2019-07-31 04:00:00 24.5 22 Nordeste 35 Nordeste 0 1011 -3.5 76
2019-07-31 03:00:00 23.4 10 Este 18 Este 0 1013.3 0.3 83
2019-07-31 02:00:00 23.1 3 Este 12 Nordeste 0 1014.2 2.5 81
2019-07-31 01:00:00 23.5 5 Norte 15 Sudeste 0 1014.5 3.5 79
2019-07-31 00:00:00 24.1 9 Este 26 Nordeste 0 1013 2.1 73
2019-07-30 23:00:00 24.2 12 Nordeste 31 Este 0 1011.7 1.1 77
2019-07-30 22:00:00 24.1 23 Este 35 Este 0 1011 0.2 81
2019-07-30 21:00:00 24.6 9 Sudeste 18 Este 0 1010.9 -0.3 76
2019-07-30 20:00:00 26.5 13 Este 24 Este 0 1010.6 -0.7 70
2019-07-30 19:00:00 27 16 Este 24 Este 0 1010.8 -0.8 64
2019-07-30 18:00:00 26.5 13 Sudeste 23 Sudeste 0 1011.2 -0.8 68
2019-07-30 17:00:00 26.6 14 Sudeste 22 Este 0 1011.3 -1.3 68
2019-07-30 16:00:00 26.7 13 Sudeste 24 Este 0 1011.6 -1.2 65
2019-07-30 15:00:00 27.4 12 Este 19 Sudeste 0 1012 -0.7 65
2019-07-30 14:00:00 27 11 Este 22 Este 0 1012.6 0.3 66
2019-07-30 13:00:00 26.5 11 Este 20 Sudeste 0 1012.8 0.4 66
2019-07-30 12:00:00 25.8 14 Este 21 Este 0 1012.7 0.5 65
2019-07-30 11:00:00 25.5 13 Este 21 Este 0 1012.3 0.6 70
2019-07-30 10:00:00 24.1 14 Nordeste 21 Este 0 1012.4 1 79
2019-07-30 09:00:00 22.1 10 Este 17 Nordeste 0 1012.2 1 90
2019-07-30 08:00:00 20.3 9 Este 15 Este 0 1011.7 0.5 90
2019-07-30 07:00:00 19.8 10 Este 13 Este 0 1011.4 -0.1 90
2019-07-30 06:00:00 19.3 9 Nordeste 10 Nordeste 0 1011.2 -0.6 90
2019-07-30 05:00:00 19.6 3 Norte 8 Norte 0 1011.2 -0.1 90
2019-07-30 04:00:00 19.8 4 Norte 8 Norte 0 1011.5 0.3 89
2019-07-30 03:00:00 20.4 0 Calma 10 Sur 0 1011.8 0.4 88
2019-07-30 02:00:00 21 8 Sudoeste 10 Sudoeste 0 1011.3 0.4 88
2019-07-30 01:00:00 20.7 6 Oeste 11 Noroeste 0 1011.2 1.1 88
2019-07-30 00:00:00 20.9 7 Oeste 14 Sudoeste 0 1011.4 1.7 87
2019-07-29 23:00:00 21.5 7 Oeste 19 Oeste 0 1010.9 1.2 87
2019-07-29 22:00:00 21.8 12 Sudoeste 17 Sudoeste 0 1010.1 0.5 84
2019-07-29 21:00:00 22.6 8 Oeste 21 Oeste 0 1009.7 -0.6 79
2019-07-29 20:00:00 23.8 10 Oeste 30 Sudoeste 0 1009.7 -1 75
2019-07-29 19:00:00 24.7 12 Oeste 27 Oeste 0 1009.6 -1.6 72
2019-07-29 18:00:00 24.7 12 Oeste 25 Oeste 0 1010.3 -1.2 71
2019-07-29 17:00:00 24.7 12 Oeste 24 Oeste 0 1010.7 -1.1 70
2019-07-29 16:00:00 25.1 13 Oeste 27 Sudoeste 0 1011.2 -1 69
2019-07-29 15:00:00 25 12 Oeste 26 Sudoeste 0 1011.5 -0.5 69
2019-07-29 14:00:00 24.3 13 Oeste 24 Sudoeste 0 1011.8 0 73
2019-07-29 13:00:00 23.7 11 Sudoeste 21 Sudoeste 0 1012.2 0.6 77
2019-07-29 12:00:00 22.7 11 Sudoeste 20 Sudoeste 0 1012 0.8 79
2019-07-29 11:00:00 21.9 8 Sudoeste 15 Oeste 0 1011.8 1.1 86
2019-07-29 10:00:00 20.8 10 Sudoeste 14 Sudoeste 0 1011.6 1.1 90
2019-07-29 09:00:00 20.2 6 Oeste 14 Oeste 0 1011.2 0.7 91
2019-07-29 08:00:00 18.9 6 Oeste 10 Oeste 0 1010.7 0.3 91
2019-07-29 07:00:00 18.1 8 Noroeste 11 Noroeste 0 1010.5 0.1 91
2019-07-29 06:00:00 18.4 8 Oeste 9 Sudoeste 0 1010.5 0 90
2019-07-29 05:00:00 19.6 8 Sudoeste 12 Sudoeste 0 1010.4 -0.2 90
2019-07-29 04:00:00 19.3 5 Oeste 12 Sudoeste 0 1010.4 -0.3 89
2019-07-29 03:00:00 20 9 Sudoeste 14 Sudoeste 0 1010.5 0.1 88
2019-07-29 02:00:00 20.1 6 Sudoeste 8 Oeste 0 1010.6 0.7 86
2019-07-29 01:00:00 20.2 6 Oeste 12 Noroeste 0 1010.7 1.5 86
2019-07-29 00:00:00 20.4 4 Noroeste 21 Oeste 0 1010.4 1.7 85
2019-07-28 23:00:00 20.8 14 Oeste 24 Oeste 0 1009.9 1.5 85
2019-07-28 22:00:00 21.1 16 Oeste 23 Oeste 0 1009.2 0.6 83
2019-07-28 21:00:00 22.4 11 Oeste 23 Oeste 0 1008.7 -0.1 75
2019-07-28 20:00:00 24 17 Oeste 28 Oeste 0 1008.4 -0.7 67
2019-07-28 19:00:00 24.4 18 Oeste 35 Oeste 0 1008.6 -0.8 66
2019-07-28 18:00:00 24.8 15 Oeste 31 Oeste 0 1008.8 -0.9 67
2019-07-28 17:00:00 24.4 26 Oeste 37 Oeste 0 1009.1 -1 66
2019-07-28 16:00:00 25.8 19 Oeste 37 Oeste 0 1009.4 -0.9 61
2019-07-28 15:00:00 25 14 Oeste 27 Oeste 0 1009.7 -0.5 65
2019-07-28 14:00:00 24.1 13 Oeste 23 Oeste 0 1010.1 0.1 68
2019-07-28 13:00:00 24.8 9 Sudoeste 15 Sudoeste 0 1010.3 0.6 69
2019-07-28 12:00:00 25.3 8 Este 18 Nordeste 0 1010.2 0.9 67
2019-07-28 11:00:00 24.6 12 Este 20 Este 0 1010 1.1 71
2019-07-28 10:00:00 22 0 Calma 15 Nordeste 0 1009.7 1.4 86
2019-07-28 09:00:00 21.3 8 Nordeste 21 Este 0 1009.3 1.3 89
2019-07-28 08:00:00 20.2 12 Nordeste 19 Nordeste 0 1008.9 1 90
2019-07-28 07:00:00 19.1 10 Nordeste 14 Nordeste 0 1008.3 0.4 90
2019-07-28 06:00:00 18.8 9 Este 10 Nordeste 0 1008 -0.3 89
2019-07-28 05:00:00 19.3 6 Este 13 Este 0 1007.9 -0.5 87
2019-07-28 04:00:00 19.4 7 Este 13 Sudoeste 0 1007.9 -0.3 85
2019-07-28 03:00:00 20.6 9 Sudoeste 21 Sudoeste 0 1008.3 0.2 84
2019-07-28 02:00:00 21.1 11 Sur 21 Sur 0 1008.4 1.2 82
2019-07-28 01:00:00 21.2 9 Sudoeste 25 Oeste 0 1008.2 1.7 80
2019-07-28 00:00:00 21.6 12 Oeste 45 Oeste 0 1008.1 2.2 80
2019-07-27 23:00:00 22.1 26 Oeste 53 Oeste 0 1007.2 1.6 76
2019-07-26 12:00:00 25.7 24 Oeste 44 Oeste 0 1011.4 0.1 76
2019-07-26 11:00:00 25.7 16 Oeste 32 Oeste 0 1011.4 0.2 80
2019-07-26 10:00:00 24 18 Oeste 33 Oeste 0 1011.5 0.3 87
2019-07-26 09:00:00 23.3 18 Oeste 34 Oeste 0 1011.3 -0.1 89
2019-07-26 08:00:00 22.9 22 Oeste 39 Oeste 0 1011.2 -0.5 89
2019-07-26 07:00:00 23 19 Oeste 38 Oeste 0 1011.2 -0.8 89
2019-07-26 06:00:00 23.2 18 Oeste 33 Oeste 0 1011.4 -0.9 90
2019-07-26 05:00:00 23.6 12 Oeste 32 Oeste 0 1011.7 -1.4 90
2019-07-26 04:00:00 24.2 19 Oeste 30 Oeste 0 1012 -1.7 89
2019-07-26 03:00:00 24.1 10 Sudoeste 16 Sudoeste 0 1012.3 -1.4 87
2019-07-26 02:00:00 24.2 9 Sudoeste 22 Oeste 0 1013.1 -0.2 85
2019-07-26 01:00:00 24.4 15 Oeste 23 Oeste 0 1013.7 1.1 86
2019-07-26 00:00:00 24.2 13 Oeste 19 Oeste 0 1013.7 1.6 84
2019-07-25 23:00:00 24.8 10 Oeste 20 Oeste 0 1013.3 1.4 83
2019-07-25 22:00:00 25.3 10 Oeste 20 Oeste 0 1012.6 0.5 80
2019-07-25 21:00:00 26.4 13 Oeste 26 Oeste 0 1012.1 -0.4 73
2019-07-25 20:00:00 27.4 16 Oeste 29 Oeste 0 1011.9 -1.1 69
2019-07-25 19:00:00 27.8 16 Oeste 26 Oeste 0 1012.1 -1.5 66
2019-07-25 18:00:00 29.2 12 Oeste 26 Oeste 0 1012.5 -1.3 63
2019-07-25 17:00:00 28.7 15 Oeste 28 Oeste 0 1013 -1 63
2019-07-25 16:00:00 29 13 Oeste 25 Oeste 0 1013.6 -0.5 63
2019-07-25 15:00:00 28.7 13 Oeste 24 Oeste 0 1013.8 -0.4 66
2019-07-25 14:00:00 28.4 11 Oeste 25 Sudoeste 0 1014 -0.3 68
2019-07-25 13:00:00 27.4 12 Oeste 22 Sudoeste 0 1014.1 0 71
2019-07-25 12:00:00 27.1 13 Oeste 25 Oeste 0 1014.2 0.6 73
2019-07-25 11:00:00 26.6 11 Oeste 22 Sudoeste 0 1014.3 1.4 76
2019-07-25 10:00:00 25.1 8 Oeste 18 Sudoeste 0 1014.1 1.8 86
2019-07-25 09:00:00 24 9 Oeste 19 Oeste 0 1013.6 1.3 89
2019-07-25 08:00:00 23.7 10 Oeste 19 Oeste 0 1012.9 0 90
2019-07-25 07:00:00 22.7 8 Noroeste 21 Oeste 0 1012.3 -0.2 89
2019-07-25 06:00:00 23.5 12 Oeste 27 Oeste 0 1012.3 -0.6 89
2019-07-25 05:00:00 23.7 18 Oeste 28 Oeste 0 1012.9 -0.8 88
2019-07-25 04:00:00 22.9 11 Noroeste 16 Noroeste 0 1012.5 -1.3 88
2019-07-25 03:00:00 23 5 Noroeste 11 Noroeste 0 1012.9 -1.3 87
2019-07-25 02:00:00 23.3 7 Noroeste 12 Noroeste 0 1013.7 0 86
2019-07-25 01:00:00 23.8 7 Noroeste 17 Noroeste 0 1013.8 0.9 85
2019-07-25 00:00:00 24.3 9 Oeste 18 Noroeste 0 1014.2 1.7 84
2019-07-24 23:00:00 24.9 12 Oeste 19 Oeste 0 1013.7 1.6 83
2019-07-24 22:00:00 25.5 13 Oeste 23 Noroeste 0 1012.9 0.5 80
2019-07-24 21:00:00 26.7 9 Oeste 15 Noroeste 0 1012.5 -0.4 74
2019-07-24 20:00:00 27.2 9 Sudeste 22 Sudeste 0 1012.1 -1.6 72
2019-07-24 19:00:00 27.7 13 Sudeste 27 Este 0 1012.4 -1.6 70
2019-07-24 18:00:00 28.2 13 Sudeste 27 Sudeste 0 1012.9 -1.2 68
2019-07-24 17:00:00 28.5 11 Sudeste 21 Sur 0 1013.7 -0.9 66
2019-07-24 16:00:00 28.5 11 Sur 19 Sudoeste 0 1014 -0.8 61
2019-07-24 15:00:00 28.2 11 Sudoeste 18 Sudoeste 0 1014.1 -0.6 58
2019-07-24 14:00:00 29 9 Sudoeste 19 Sudoeste 0 1014.6 -0.2 60
2019-07-24 13:00:00 28 9 Oeste 19 Sudoeste 0 1014.8 0.1 62
2019-07-24 12:00:00 27.2 10 Oeste 19 Sudoeste 0 1014.7 0.5 71
2019-07-24 11:00:00 26.4 9 Oeste 19 Sudoeste 0 1014.8 1.1 74
2019-07-24 10:00:00 25.4 10 Sudoeste 18 Sudoeste 0 1014.7 1.9 78
2019-07-24 09:00:00 24.7 8 Noroeste 13 Oeste 0 1014.2 2.3 81
2019-07-24 08:00:00 23.2 9 Oeste 26 Oeste 0 1013.7 1.3 79
2019-07-24 07:00:00 23.9 19 Oeste 31 Oeste 0 1012.8 -0.7 80
2019-07-24 06:00:00 23.8 6 Sudeste 17 Este 0 1011.9 -2.4 73
2019-07-24 05:00:00 22 7 Norte 17 Norte 0 1012.4 -2.1 77
2019-07-24 04:00:00 21.8 5 Noroeste 9 Norte 0 1013.5 -1.1 78
2019-07-24 03:00:00 22.5 7 Noroeste 13 Norte 0 1014.3 -0.8 81
2019-07-24 02:00:00 23.8 4 Sudoeste 11 Sudoeste 0 1014.5 -0.4 79
2019-07-24 01:00:00 23.4 9 Noroeste 14 Oeste 0 1014.6 0.4 77
2019-07-24 00:00:00 23.9 12 Noroeste 21 Noroeste 0 1015.1 2.1 77
2019-07-23 23:00:00 24.6 6 Oeste 31 Oeste 0 1014.9 1.9 74
2019-07-23 22:00:00 25.1 15 Oeste 32 Noroeste 0 1014.2 0.9 71
2019-07-23 21:00:00 26.7 11 Oeste 23 Oeste 0 1013 -0.7 63
2019-07-23 20:00:00 27.1 12 Oeste 28 Oeste 0 1013 -1.2 69
2019-07-23 19:00:00 28 14 Oeste 26 Oeste 0 1013.3 -1.7 65
2019-07-23 18:00:00 28.8 12 Oeste 85 Noroeste 0 1013.7 -1.4 63
2019-07-23 17:00:00 28.8 12 Oeste 28 Oeste 0 1014.2 -0.6 58
2019-07-23 16:00:00 28.6 13 Oeste 35 Oeste 0 1015 0.1 64
2019-07-23 15:00:00 29.2 18 Oeste 35 Oeste 0 1015.1 -0.1 59
2019-07-23 14:00:00 29.1 8 Sudeste 18 Sudeste 0 1014.8 -0.4 51
2019-07-23 13:00:00 27.9 8 Sur 16 Sudeste 0 1014.9 -0.2 61
2019-07-23 12:00:00 26.7 6 Sudoeste 18 Sudoeste 0 1015.2 -0.1 70
2019-07-23 11:00:00 26.5 6 Oeste 19 Oeste 0 1015.2 0 77
2019-07-23 10:00:00 25.8 9 Sudoeste 18 Oeste 0 1015.1 1.1 76
2019-07-23 09:00:00 24.9 12 Oeste 24 Oeste 0 1015.3 1.9 81
2019-07-23 08:00:00 24.1 20 Oeste 33 Oeste 0 1015.2 1.5 81
2019-07-23 07:00:00 25.6 11 Sudoeste 27 Nordeste 0 1014 -0.3 66
2019-07-23 06:00:00 26.8 21 Este 38 Este 0 1013.4 -1.9 50
2019-07-23 05:00:00 24.5 21 Este 35 Este 0 1013.7 -2.6 70
2019-07-23 04:00:00 23.1 9 Este 13 Este 0 1014.3 -2.2 88
2019-07-23 03:00:00 23.7 2 Sur 14 Oeste 0 1015.3 -1 85
2019-07-23 02:00:00 24.8 9 Oeste 19 Oeste 0 1016.3 0.5 82
2019-07-23 01:00:00 26.2 13 Noroeste 26 Este 0 1016.5 1.4 69
2019-07-23 00:00:00 26.3 19 Este 44 Este 0 1016.3 1.8 62
2019-07-22 23:00:00 26.6 30 Este 48 Sudeste 0 1015.8 2 63
2019-07-22 22:00:00 26.7 26 Este 50 Este 0 1015.1 1.2 67
2019-07-22 21:00:00 27.4 28 Este 54 Este 0 1014.5 -0.1 64
2019-07-22 20:00:00 28.5 33 Este 54 Este 0 1013.8 -1.6 61
2019-07-22 19:00:00 28.2 27 Este 50 Este 0 1013.9 -1.8 64
2019-07-22 18:00:00 27.3 33 Este 57 Sudeste 0 1014.6 -1.6 67
2019-07-22 17:00:00 28.2 36 Este 59 Sudeste 0 1015.4 -1.5 65
2019-07-22 16:00:00 28.2 33 Sudeste 58 Sudeste 0 1015.7 -2 65
2019-07-22 15:00:00 28.4 34 Sudeste 56 Sudeste 0 1016.2 -2.1 63
2019-07-22 14:00:00 28 31 Sudeste 54 Sudeste 0 1016.9 -1.5 66
2019-07-22 13:00:00 28.1 28 Sudeste 47 Este 0 1017.7 -0.6 64
2019-07-22 12:00:00 28.1 16 Sudeste 33 Sudeste 0 1018.3 0.1 62
2019-07-22 11:00:00 26.2 9 Oeste 24 Sudeste 0 1018.4 0.4 76
2019-07-22 10:00:00 25.1 9 Sudeste 20 Sudeste 0 1018.3 0.5 82
2019-07-22 09:00:00 24.3 7 Sudeste 13 Sudeste 0 1018.2 0.6 86
2019-07-22 08:00:00 23 3 Oeste 12 Nordeste 0 1018 0.8 87
2019-07-22 07:00:00 22.9 8 Noroeste 15 Oeste 0 1017.8 0.7 86
2019-07-22 06:00:00 23.5 8 Oeste 17 Oeste 0 1017.6 0.1 85
2019-07-22 05:00:00 23.8 8 Oeste 18 Oeste 0 1017.2 -0.8 83
2019-07-22 04:00:00 23.7 9 Oeste 20 Noroeste 0 1017.1 -0.8 82
2019-07-22 03:00:00 24.1 14 Noroeste 25 Noroeste 0 1017.5 0.7 82
2019-07-22 02:00:00 24.6 15 Oeste 30 Sudoeste 0 1018 0.6 82
2019-07-22 01:00:00 25.3 11 Oeste 25 Sudoeste 0 1017.9 0.1 78
2019-07-22 00:00:00 25.9 15 Este 37 Nordeste 0 1016.8 -0.7 76
2019-07-21 23:00:00 26.6 15 Este 24 Nordeste 0 1017.4 1.4 71
2019-07-21 22:00:00 25.5 6 Noroeste 18 Sudoeste 0 1017.8 2.5 76
2019-07-21 21:00:00 25.6 11 Sudoeste 21 Sudoeste 0 1017.5 1.7 78
2019-07-21 20:00:00 27.5 13 Sudoeste 23 Oeste 0 1016 -0.3 69
2019-07-21 19:00:00 28.8 13 Oeste 28 Oeste 0 1015.3 -1.3 60
2019-07-21 18:00:00 29.5 17 Oeste 32 Oeste 0 1015.8 -1.3 55
2019-07-21 17:00:00 29.5 15 Oeste 35 Oeste 0 1016.3 -1.2 57
2019-07-21 16:00:00 29.3 15 Oeste 30 Oeste 0 1016.6 -0.8 57
2019-07-21 15:00:00 29.3 15 Oeste 27 Oeste 0 1017.1 0 60
2019-07-21 14:00:00 28.9 11 Oeste 23 Oeste 0 1017.5 0.2 62
2019-07-21 13:00:00 29.2 11 Oeste 20 Sudoeste 0 1017.4 0.4 59
2019-07-21 12:00:00 27.3 11 Sudoeste 18 Sudoeste 0 1017.1 1.1 65
2019-07-21 11:00:00 26.5 8 Oeste 17 Sudoeste 0 1017.3 1.5 69
2019-07-21 10:00:00 25.5 6 Oeste 18 Oeste 0 1017 1.6 74
2019-07-21 09:00:00 23.6 8 Oeste 14 Oeste 0 1016 0.4 82
2019-07-21 08:00:00 21.7 11 Noroeste 14 Oeste 0 1015.8 0.9 86
2019-07-21 07:00:00 22 8 Norte 10 Norte 0 1015.4 -0.3 86
2019-07-21 06:00:00 23.2 8 Sudoeste 14 Sudoeste 0 1015.6 -0.4 86
2019-07-21 05:00:00 23.3 8 Sudoeste 12 Sudoeste 0 1014.9 -0.8 83
2019-07-21 04:00:00 22.9 9 Oeste 17 Oeste 0 1015.7 0.4 81
2019-07-21 03:00:00 23.7 8 Oeste 17 Sudoeste 0 1016 1 81
2019-07-21 02:00:00 24.2 6 Oeste 20 Oeste 0 1015.7 1.1 79
2019-07-21 01:00:00 24.2 10 Oeste 19 Oeste 0 1015.3 1.5 73
2019-07-21 00:00:00 24.3 7 Oeste 20 Noroeste 0 1015 1.5 69